sensor_id;sensor_type;location;lat;lon;timestamp;P1;durP1;ratioP1;P2;durP2;ratioP2
1811;SDS011;904;47.814;11.134;2023-01-16T00:01:44;3.17;;;1.20;;
1811;SDS011;904;47.814;11.134;2023-01-16T00:04:13;2.55;;;1.10;;
1811;SDS011;904;47.814;11.134;2023-01-16T00:06:40;5.57;;;1.92;;
1811;SDS011;904;47.814;11.134;2023-01-16T00:09:08;2.95;;;1.10;;
1811;SDS011;904;47.814;11.134;2023-01-16T00:11:35;2.15;;;1.02;;
1811;SDS011;904;47.814;11.134;2023-01-16T00:14:02;2.00;;;0.90;;
1811;SDS011;904;47.814;11.134;2023-01-16T00:16:30;3.38;;;1.55;;
1811;SDS011;904;47.814;11.134;2023-01-16T00:18:57;4.30;;;1.67;;
1811;SDS011;904;47.814;11.134;2023-01-16T00:21:26;2.88;;;1.30;;
1811;SDS011;904;47.814;11.134;2023-01-16T00:23:53;3.17;;;1.60;;
1811;SDS011;904;47.814;11.134;2023-01-16T00:26:20;2.80;;;1.65;;
1811;SDS011;904;47.814;11.134;2023-01-16T00:28:48;2.60;;;1.45;;
1811;SDS011;904;47.814;11.134;2023-01-16T00:31:15;3.25;;;1.38;;
1811;SDS011;904;47.814;11.134;2023-01-16T00:33:43;3.08;;;0.80;;
1811;SDS011;904;47.814;11.134;2023-01-16T00:36:10;2.55;;;1.40;;
1811;SDS011;904;47.814;11.134;2023-01-16T00:38:39;2.88;;;1.10;;
1811;SDS011;904;47.814;11.134;2023-01-16T00:41:06;2.67;;;1.00;;
1811;SDS011;904;47.814;11.134;2023-01-16T00:43:34;3.85;;;1.00;;
1811;SDS011;904;47.814;11.134;2023-01-16T00:46:00;2.80;;;1.05;;
1811;SDS011;904;47.814;11.134;2023-01-16T00:48:27;2.40;;;1.50;;
1811;SDS011;904;47.814;11.134;2023-01-16T00:50:54;2.28;;;0.85;;
1811;SDS011;904;47.814;11.134;2023-01-16T00:53:21;4.57;;;0.90;;
1811;SDS011;904;47.814;11.134;2023-01-16T00:55:51;2.15;;;0.90;;
1811;SDS011;904;47.814;11.134;2023-01-16T00:58:18;3.20;;;1.10;;
1811;SDS011;904;47.814;11.134;2023-01-16T01:00:45;2.58;;;1.02;;
1811;SDS011;904;47.814;11.134;2023-01-16T01:03:14;2.38;;;1.35;;
1811;SDS011;904;47.814;11.134;2023-01-16T01:05:41;3.00;;;1.10;;
1811;SDS011;904;47.814;11.134;2023-01-16T01:08:08;2.20;;;0.75;;
1811;SDS011;904;47.814;11.134;2023-01-16T01:10:35;2.30;;;0.80;;
1811;SDS011;904;47.814;11.134;2023-01-16T01:13:05;2.70;;;1.55;;
1811;SDS011;904;47.814;11.134;2023-01-16T01:15:32;3.15;;;1.20;;
1811;SDS011;904;47.814;11.134;2023-01-16T01:17:59;3.45;;;1.10;;
1811;SDS011;904;47.814;11.134;2023-01-16T01:20:26;3.50;;;1.35;;
1811;SDS011;904;47.814;11.134;2023-01-16T01:22:53;2.53;;;1.20;;
1811;SDS011;904;47.814;11.134;2023-01-16T01:25:21;2.08;;;0.80;;
1811;SDS011;904;47.814;11.134;2023-01-16T01:27:48;1.70;;;0.90;;
1811;SDS011;904;47.814;11.134;2023-01-16T01:30:16;2.42;;;0.90;;
1811;SDS011;904;47.814;11.134;2023-01-16T01:32:44;1.65;;;0.80;;
1811;SDS011;904;47.814;11.134;2023-01-16T01:35:11;2.35;;;1.00;;
1811;SDS011;904;47.814;11.134;2023-01-16T01:37:38;2.78;;;0.80;;
1811;SDS011;904;47.814;11.134;2023-01-16T01:40:05;1.90;;;0.82;;
1811;SDS011;904;47.814;11.134;2023-01-16T01:42:37;1.88;;;0.90;;
1811;SDS011;904;47.814;11.134;2023-01-16T01:45:19;3.60;;;1.30;;
1811;SDS011;904;47.814;11.134;2023-01-16T01:47:49;2.00;;;1.10;;
1811;SDS011;904;47.814;11.134;2023-01-16T01:50:27;1.90;;;1.20;;
1811;SDS011;904;47.814;11.134;2023-01-16T01:53:03;2.17;;;1.13;;
1811;SDS011;904;47.814;11.134;2023-01-16T01:55:35;3.50;;;1.63;;
1811;SDS011;904;47.814;11.134;2023-01-16T01:58:05;2.38;;;1.00;;
1811;SDS011;904;47.814;11.134;2023-01-16T02:00:34;2.15;;;1.25;;
1811;SDS011;904;47.814;11.134;2023-01-16T02:03:05;2.55;;;1.10;;
1811;SDS011;904;47.814;11.134;2023-01-16T02:05:35;1.92;;;1.02;;
1811;SDS011;904;47.814;11.134;2023-01-16T02:08:05;3.10;;;1.20;;
1811;SDS011;904;47.814;11.134;2023-01-16T02:10:34;2.63;;;1.00;;
1811;SDS011;904;47.814;11.134;2023-01-16T02:13:04;2.22;;;1.05;;
1811;SDS011;904;47.814;11.134;2023-01-16T02:15:31;3.40;;;1.20;;
1811;SDS011;904;47.814;11.134;2023-01-16T02:17:59;2.10;;;1.17;;
1811;SDS011;904;47.814;11.134;2023-01-16T02:20:46;2.20;;;1.15;;
1811;SDS011;904;47.814;11.134;2023-01-16T02:32:32;2.15;;;1.02;;
1811;SDS011;904;47.814;11.134;2023-01-16T02:35:13;3.15;;;1.40;;
1811;SDS011;904;47.814;11.134;2023-01-16T02:37:58;2.13;;;0.88;;
1811;SDS011;904;47.814;11.134;2023-01-16T02:40:31;3.20;;;1.38;;
1811;SDS011;904;47.814;11.134;2023-01-16T02:43:10;2.67;;;1.30;;
1811;SDS011;904;47.814;11.134;2023-01-16T02:45:46;3.85;;;1.13;;
1811;SDS011;904;47.814;11.134;2023-01-16T02:48:26;3.22;;;1.33;;
1811;SDS011;904;47.814;11.134;2023-01-16T02:51:01;2.20;;;1.05;;
1811;SDS011;904;47.814;11.134;2023-01-16T02:53:34;2.30;;;1.20;;
1811;SDS011;904;47.814;11.134;2023-01-16T02:56:17;1.90;;;1.00;;
1811;SDS011;904;47.814;11.134;2023-01-16T02:58:47;2.67;;;1.27;;
1811;SDS011;904;47.814;11.134;2023-01-16T03:01:17;3.70;;;1.20;;
1811;SDS011;904;47.814;11.134;2023-01-16T03:03:48;2.15;;;1.10;;
1811;SDS011;904;47.814;11.134;2023-01-16T03:06:33;2.40;;;1.05;;
1811;SDS011;904;47.814;11.134;2023-01-16T03:09:19;2.22;;;1.00;;
1811;SDS011;904;47.814;11.134;2023-01-16T03:12:05;1.90;;;1.00;;
1811;SDS011;904;47.814;11.134;2023-01-16T03:14:42;2.97;;;1.58;;
1811;SDS011;904;47.814;11.134;2023-01-16T03:17:20;2.15;;;1.23;;
1811;SDS011;904;47.814;11.134;2023-01-16T03:20:02;2.20;;;1.40;;
1811;SDS011;904;47.814;11.134;2023-01-16T03:22:39;4.00;;;1.23;;
1811;SDS011;904;47.814;11.134;2023-01-16T03:25:17;3.88;;;1.23;;
1811;SDS011;904;47.814;11.134;2023-01-16T03:27:53;1.95;;;1.15;;
1811;SDS011;904;47.814;11.134;2023-01-16T03:30:27;3.33;;;1.42;;
1811;SDS011;904;47.814;11.134;2023-01-16T03:32:58;2.85;;;1.35;;
1811;SDS011;904;47.814;11.134;2023-01-16T03:35:32;3.97;;;1.70;;
1811;SDS011;904;47.814;11.134;2023-01-16T03:38:03;4.35;;;1.60;;
1811;SDS011;904;47.814;11.134;2023-01-16T03:40:33;3.17;;;1.90;;
1811;SDS011;904;47.814;11.134;2023-01-16T03:43:04;2.38;;;1.60;;
1811;SDS011;904;47.814;11.134;2023-01-16T03:45:36;3.05;;;1.80;;
1811;SDS011;904;47.814;11.134;2023-01-16T03:48:06;2.42;;;1.45;;
1811;SDS011;904;47.814;11.134;2023-01-16T03:50:39;2.30;;;1.25;;
1811;SDS011;904;47.814;11.134;2023-01-16T03:53:12;2.70;;;1.30;;
1811;SDS011;904;47.814;11.134;2023-01-16T03:55:41;3.17;;;1.75;;
1811;SDS011;904;47.814;11.134;2023-01-16T03:58:13;3.90;;;2.13;;
1811;SDS011;904;47.814;11.134;2023-01-16T04:00:46;5.25;;;3.15;;
1811;SDS011;904;47.814;11.134;2023-01-16T04:03:17;4.75;;;2.60;;
1811;SDS011;904;47.814;11.134;2023-01-16T04:05:53;3.42;;;2.03;;
1811;SDS011;904;47.814;11.134;2023-01-16T04:08:25;2.67;;;1.35;;
1811;SDS011;904;47.814;11.134;2023-01-16T04:10:54;2.58;;;1.45;;
1811;SDS011;904;47.814;11.134;2023-01-16T04:13:23;2.50;;;1.25;;
1811;SDS011;904;47.814;11.134;2023-01-16T04:15:54;4.00;;;1.40;;
1811;SDS011;904;47.814;11.134;2023-01-16T04:18:32;2.17;;;1.20;;
1811;SDS011;904;47.814;11.134;2023-01-16T04:21:04;2.35;;;1.20;;
1811;SDS011;904;47.814;11.134;2023-01-16T04:23:32;3.75;;;1.80;;
1811;SDS011;904;47.814;11.134;2023-01-16T04:25:59;1.75;;;0.98;;
1811;SDS011;904;47.814;11.134;2023-01-16T04:28:26;2.50;;;1.00;;
1811;SDS011;904;47.814;11.134;2023-01-16T04:30:53;2.40;;;1.42;;
1811;SDS011;904;47.814;11.134;2023-01-16T04:33:20;2.47;;;1.20;;
1811;SDS011;904;47.814;11.134;2023-01-16T04:35:47;2.45;;;1.10;;
1811;SDS011;904;47.814;11.134;2023-01-16T04:38:15;2.50;;;1.13;;
1811;SDS011;904;47.814;11.134;2023-01-16T04:40:42;2.20;;;1.50;;
1811;SDS011;904;47.814;11.134;2023-01-16T04:43:09;2.42;;;1.10;;
1811;SDS011;904;47.814;11.134;2023-01-16T04:45:36;2.97;;;1.77;;
1811;SDS011;904;47.814;11.134;2023-01-16T04:48:04;2.58;;;1.13;;
1811;SDS011;904;47.814;11.134;2023-01-16T04:50:31;2.20;;;1.10;;
1811;SDS011;904;47.814;11.134;2023-01-16T04:52:58;6.45;;;2.03;;
1811;SDS011;904;47.814;11.134;2023-01-16T04:55:27;5.70;;;2.40;;
1811;SDS011;904;47.814;11.134;2023-01-16T04:57:53;3.65;;;2.00;;
1811;SDS011;904;47.814;11.134;2023-01-16T05:00:20;4.05;;;2.60;;
1811;SDS011;904;47.814;11.134;2023-01-16T05:02:47;4.47;;;2.30;;
1811;SDS011;904;47.814;11.134;2023-01-16T05:05:16;4.13;;;2.35;;
1811;SDS011;904;47.814;11.134;2023-01-16T05:07:43;2.30;;;1.35;;
1811;SDS011;904;47.814;11.134;2023-01-16T05:10:10;3.67;;;1.30;;
1811;SDS011;904;47.814;11.134;2023-01-16T05:12:38;2.78;;;1.42;;
1811;SDS011;904;47.814;11.134;2023-01-16T05:15:05;2.45;;;1.35;;
1811;SDS011;904;47.814;11.134;2023-01-16T05:17:33;3.47;;;1.98;;
1811;SDS011;904;47.814;11.134;2023-01-16T05:20:00;4.18;;;1.95;;
1811;SDS011;904;47.814;11.134;2023-01-16T05:22:27;2.50;;;1.50;;
1811;SDS011;904;47.814;11.134;2023-01-16T05:24:54;4.07;;;2.22;;
1811;SDS011;904;47.814;11.134;2023-01-16T05:27:21;4.38;;;2.35;;
1811;SDS011;904;47.814;11.134;2023-01-16T05:29:49;4.25;;;2.25;;
1811;SDS011;904;47.814;11.134;2023-01-16T05:32:16;2.90;;;1.63;;
1811;SDS011;904;47.814;11.134;2023-01-16T05:34:43;5.63;;;3.00;;
1811;SDS011;904;47.814;11.134;2023-01-16T05:37:10;3.42;;;1.70;;
1811;SDS011;904;47.814;11.134;2023-01-16T05:39:37;5.97;;;3.00;;
1811;SDS011;904;47.814;11.134;2023-01-16T05:42:04;5.50;;;2.20;;
1811;SDS011;904;47.814;11.134;2023-01-16T05:44:45;8.55;;;3.78;;
1811;SDS011;904;47.814;11.134;2023-01-16T05:47:14;5.50;;;3.67;;
1811;SDS011;904;47.814;11.134;2023-01-16T05:49:41;3.08;;;1.45;;
1811;SDS011;904;47.814;11.134;2023-01-16T05:52:08;2.47;;;1.38;;
1811;SDS011;904;47.814;11.134;2023-01-16T05:54:35;2.55;;;1.17;;
1811;SDS011;904;47.814;11.134;2023-01-16T05:57:02;2.33;;;1.00;;
1811;SDS011;904;47.814;11.134;2023-01-16T05:59:29;2.65;;;1.20;;
1811;SDS011;904;47.814;11.134;2023-01-16T06:01:56;3.70;;;2.30;;
1811;SDS011;904;47.814;11.134;2023-01-16T06:04:24;2.70;;;1.20;;
1811;SDS011;904;47.814;11.134;2023-01-16T06:06:51;2.92;;;1.40;;
1811;SDS011;904;47.814;11.134;2023-01-16T06:09:19;2.15;;;1.13;;
1811;SDS011;904;47.814;11.134;2023-01-16T06:11:46;1.95;;;0.80;;
1811;SDS011;904;47.814;11.134;2023-01-16T06:14:13;2.35;;;1.27;;
1811;SDS011;904;47.814;11.134;2023-01-16T06:16:40;2.28;;;1.20;;
1811;SDS011;904;47.814;11.134;2023-01-16T06:19:07;2.08;;;1.08;;
1811;SDS011;904;47.814;11.134;2023-01-16T06:21:35;2.78;;;1.00;;
1811;SDS011;904;47.814;11.134;2023-01-16T06:24:02;2.50;;;1.20;;
1811;SDS011;904;47.814;11.134;2023-01-16T06:26:29;2.70;;;1.17;;
1811;SDS011;904;47.814;11.134;2023-01-16T06:28:56;2.90;;;1.55;;
1811;SDS011;904;47.814;11.134;2023-01-16T06:31:23;3.08;;;1.55;;
1811;SDS011;904;47.814;11.134;2023-01-16T06:33:50;2.65;;;1.42;;
1811;SDS011;904;47.814;11.134;2023-01-16T06:36:17;2.38;;;1.40;;
1811;SDS011;904;47.814;11.134;2023-01-16T06:38:46;3.00;;;1.50;;
1811;SDS011;904;47.814;11.134;2023-01-16T06:41:14;3.45;;;1.75;;
1811;SDS011;904;47.814;11.134;2023-01-16T06:43:41;2.90;;;1.75;;
1811;SDS011;904;47.814;11.134;2023-01-16T06:46:08;2.63;;;1.50;;
1811;SDS011;904;47.814;11.134;2023-01-16T06:48:35;3.47;;;2.20;;
1811;SDS011;904;47.814;11.134;2023-01-16T06:51:02;5.75;;;1.90;;
1811;SDS011;904;47.814;11.134;2023-01-16T06:53:29;4.63;;;2.20;;
1811;SDS011;904;47.814;11.134;2023-01-16T06:55:57;3.75;;;1.88;;
1811;SDS011;904;47.814;11.134;2023-01-16T06:58:24;3.20;;;1.77;;
1811;SDS011;904;47.814;11.134;2023-01-16T07:00:51;4.30;;;1.92;;
1811;SDS011;904;47.814;11.134;2023-01-16T07:03:19;3.30;;;1.58;;
1811;SDS011;904;47.814;11.134;2023-01-16T07:05:47;2.92;;;1.60;;
1811;SDS011;904;47.814;11.134;2023-01-16T07:08:14;3.58;;;1.30;;
1811;SDS011;904;47.814;11.134;2023-01-16T07:10:42;4.43;;;2.15;;
1811;SDS011;904;47.814;11.134;2023-01-16T07:13:11;3.80;;;1.90;;
1811;SDS011;904;47.814;11.134;2023-01-16T07:15:40;5.88;;;3.33;;
1811;SDS011;904;47.814;11.134;2023-01-16T07:18:31;4.05;;;3.45;;
1811;SDS011;904;47.814;11.134;2023-01-16T07:21:15;2.50;;;1.40;;
1811;SDS011;904;47.814;11.134;2023-01-16T07:24:07;3.75;;;2.10;;
1811;SDS011;904;47.814;11.134;2023-01-16T07:26:37;3.40;;;1.70;;
1811;SDS011;904;47.814;11.134;2023-01-16T07:29:11;4.50;;;2.63;;
1811;SDS011;904;47.814;11.134;2023-01-16T07:31:39;5.97;;;2.40;;
1811;SDS011;904;47.814;11.134;2023-01-16T07:34:12;5.03;;;2.85;;
1811;SDS011;904;47.814;11.134;2023-01-16T07:36:39;13.05;;;8.82;;
1811;SDS011;904;47.814;11.134;2023-01-16T07:39:07;6.80;;;3.67;;
1811;SDS011;904;47.814;11.134;2023-01-16T07:41:34;5.32;;;2.90;;
1811;SDS011;904;47.814;11.134;2023-01-16T07:44:03;5.55;;;3.22;;
1811;SDS011;904;47.814;11.134;2023-01-16T07:46:32;8.10;;;3.83;;
1811;SDS011;904;47.814;11.134;2023-01-16T07:49:00;4.63;;;1.95;;
1811;SDS011;904;47.814;11.134;2023-01-16T07:51:29;6.80;;;3.58;;
1811;SDS011;904;47.814;11.134;2023-01-16T07:54:01;7.57;;;5.03;;
1811;SDS011;904;47.814;11.134;2023-01-16T07:56:37;8.63;;;5.05;;
1811;SDS011;904;47.814;11.134;2023-01-16T07:59:04;7.78;;;3.03;;
1811;SDS011;904;47.814;11.134;2023-01-16T08:01:35;6.03;;;2.97;;
1811;SDS011;904;47.814;11.134;2023-01-16T08:04:12;4.72;;;2.78;;
1811;SDS011;904;47.814;11.134;2023-01-16T08:06:50;3.85;;;2.88;;
1811;SDS011;904;47.814;11.134;2023-01-16T08:09:26;4.78;;;3.10;;
1811;SDS011;904;47.814;11.134;2023-01-16T08:11:53;5.05;;;3.00;;
1811;SDS011;904;47.814;11.134;2023-01-16T08:14:25;5.90;;;4.03;;
1811;SDS011;904;47.814;11.134;2023-01-16T08:16:56;10.75;;;5.22;;
1811;SDS011;904;47.814;11.134;2023-01-16T08:19:25;6.70;;;4.80;;
1811;SDS011;904;47.814;11.134;2023-01-16T08:21:53;7.25;;;4.60;;
1811;SDS011;904;47.814;11.134;2023-01-16T08:24:20;10.13;;;6.22;;
1811;SDS011;904;47.814;11.134;2023-01-16T08:26:49;10.35;;;5.60;;
1811;SDS011;904;47.814;11.134;2023-01-16T08:29:20;6.90;;;5.20;;
1811;SDS011;904;47.814;11.134;2023-01-16T08:31:48;6.20;;;4.78;;
1811;SDS011;904;47.814;11.134;2023-01-16T08:34:16;13.82;;;8.80;;
1811;SDS011;904;47.814;11.134;2023-01-16T08:36:43;13.25;;;8.55;;
1811;SDS011;904;47.814;11.134;2023-01-16T08:39:11;11.60;;;6.85;;
1811;SDS011;904;47.814;11.134;2023-01-16T08:41:38;8.70;;;6.10;;
1811;SDS011;904;47.814;11.134;2023-01-16T08:44:33;6.90;;;4.97;;
1811;SDS011;904;47.814;11.134;2023-01-16T08:47:18;6.60;;;5.43;;
1811;SDS011;904;47.814;11.134;2023-01-16T08:50:09;7.28;;;5.05;;
1811;SDS011;904;47.814;11.134;2023-01-16T08:52:55;9.45;;;5.60;;
1811;SDS011;904;47.814;11.134;2023-01-16T08:55:22;7.70;;;4.95;;
1811;SDS011;904;47.814;11.134;2023-01-16T08:57:49;7.95;;;6.18;;
1811;SDS011;904;47.814;11.134;2023-01-16T09:00:16;5.82;;;3.72;;
1811;SDS011;904;47.814;11.134;2023-01-16T09:02:45;4.68;;;2.60;;
1811;SDS011;904;47.814;11.134;2023-01-16T09:05:14;4.13;;;2.30;;
1811;SDS011;904;47.814;11.134;2023-01-16T09:07:40;3.88;;;1.92;;
1811;SDS011;904;47.814;11.134;2023-01-16T09:10:08;4.05;;;1.80;;
1811;SDS011;904;47.814;11.134;2023-01-16T09:12:36;3.33;;;2.65;;
1811;SDS011;904;47.814;11.134;2023-01-16T09:15:21;3.25;;;2.17;;
1811;SDS011;904;47.814;11.134;2023-01-16T09:17:48;2.67;;;1.92;;
1811;SDS011;904;47.814;11.134;2023-01-16T09:20:16;3.45;;;1.95;;
1811;SDS011;904;47.814;11.134;2023-01-16T09:22:52;3.50;;;2.38;;
1811;SDS011;904;47.814;11.134;2023-01-16T09:25:23;4.10;;;3.08;;
1811;SDS011;904;47.814;11.134;2023-01-16T09:27:50;4.78;;;3.65;;
1811;SDS011;904;47.814;11.134;2023-01-16T09:30:17;3.30;;;2.17;;
1811;SDS011;904;47.814;11.134;2023-01-16T09:32:47;5.50;;;2.50;;
1811;SDS011;904;47.814;11.134;2023-01-16T09:35:14;2.90;;;1.83;;
1811;SDS011;904;47.814;11.134;2023-01-16T09:37:48;2.92;;;1.95;;
1811;SDS011;904;47.814;11.134;2023-01-16T09:40:19;2.90;;;1.80;;
1811;SDS011;904;47.814;11.134;2023-01-16T09:42:50;3.08;;;2.28;;
1811;SDS011;904;47.814;11.134;2023-01-16T09:45:50;3.53;;;2.28;;
1811;SDS011;904;47.814;11.134;2023-01-16T09:48:23;3.05;;;1.90;;
1811;SDS011;904;47.814;11.134;2023-01-16T09:50:56;4.05;;;2.42;;
1811;SDS011;904;47.814;11.134;2023-01-16T09:53:31;9.88;;;2.95;;
1811;SDS011;904;47.814;11.134;2023-01-16T09:56:20;7.90;;;3.50;;
1811;SDS011;904;47.814;11.134;2023-01-16T09:59:12;5.68;;;3.45;;
1811;SDS011;904;47.814;11.134;2023-01-16T10:01:50;3.67;;;2.60;;
1811;SDS011;904;47.814;11.134;2023-01-16T10:04:22;5.53;;;2.63;;
1811;SDS011;904;47.814;11.134;2023-01-16T10:06:54;4.28;;;2.85;;
1811;SDS011;904;47.814;11.134;2023-01-16T10:09:36;5.07;;;3.40;;
1811;SDS011;904;47.814;11.134;2023-01-16T10:12:12;4.22;;;3.15;;
1811;SDS011;904;47.814;11.134;2023-01-16T10:14:45;3.80;;;2.20;;
1811;SDS011;904;47.814;11.134;2023-01-16T10:17:20;4.90;;;2.78;;
1811;SDS011;904;47.814;11.134;2023-01-16T10:20:03;3.42;;;2.10;;
1811;SDS011;904;47.814;11.134;2023-01-16T10:22:47;4.15;;;2.85;;
1811;SDS011;904;47.814;11.134;2023-01-16T10:25:25;4.70;;;2.45;;
1811;SDS011;904;47.814;11.134;2023-01-16T10:28:02;4.20;;;2.50;;
1811;SDS011;904;47.814;11.134;2023-01-16T10:30:39;3.60;;;2.70;;
1811;SDS011;904;47.814;11.134;2023-01-16T10:33:11;5.47;;;2.60;;
1811;SDS011;904;47.814;11.134;2023-01-16T10:35:43;4.00;;;2.10;;
1811;SDS011;904;47.814;11.134;2023-01-16T10:38:17;2.77;;;1.97;;
1811;SDS011;904;47.814;11.134;2023-01-16T10:40:59;2.40;;;1.30;;
1811;SDS011;904;47.814;11.134;2023-01-16T10:43:47;2.07;;;1.00;;
1811;SDS011;904;47.814;11.134;2023-01-16T10:46:32;2.43;;;0.90;;
1811;SDS011;904;47.814;11.134;2023-01-16T10:49:17;3.10;;;0.80;;
1811;SDS011;904;47.814;11.134;2023-01-16T10:51:54;2.20;;;0.80;;
1811;SDS011;904;47.814;11.134;2023-01-16T10:54:25;1.90;;;1.00;;
1811;SDS011;904;47.814;11.134;2023-01-16T10:56:53;2.90;;;1.20;;
1811;SDS011;904;47.814;11.134;2023-01-16T10:59:23;3.60;;;1.20;;
1811;SDS011;904;47.814;11.134;2023-01-16T11:01:51;2.43;;;0.97;;
1811;SDS011;904;47.814;11.134;2023-01-16T11:04:20;2.10;;;1.03;;
1811;SDS011;904;47.814;11.134;2023-01-16T11:06:47;2.90;;;0.93;;
1811;SDS011;904;47.814;11.134;2023-01-16T11:09:39;2.53;;;1.17;;
1811;SDS011;904;47.814;11.134;2023-01-16T11:12:10;2.20;;;1.13;;
1811;SDS011;904;47.814;11.134;2023-01-16T11:15:00;1.93;;;1.03;;
1811;SDS011;904;47.814;11.134;2023-01-16T11:17:50;1.80;;;0.80;;
1811;SDS011;904;47.814;11.134;2023-01-16T11:20:38;1.70;;;0.77;;
1811;SDS011;904;47.814;11.134;2023-01-16T11:23:13;2.13;;;0.70;;
1811;SDS011;904;47.814;11.134;2023-01-16T11:25:44;2.10;;;0.83;;
1811;SDS011;904;47.814;11.134;2023-01-16T11:28:15;1.80;;;0.90;;
1811;SDS011;904;47.814;11.134;2023-01-16T11:30:46;1.50;;;0.60;;
1811;SDS011;904;47.814;11.134;2023-01-16T11:33:19;1.93;;;1.10;;
1811;SDS011;904;47.814;11.134;2023-01-16T11:35:50;1.60;;;0.70;;
1811;SDS011;904;47.814;11.134;2023-01-16T11:38:21;3.47;;;0.80;;
1811;SDS011;904;47.814;11.134;2023-01-16T11:40:50;1.90;;;0.80;;
1811;SDS011;904;47.814;11.134;2023-01-16T11:43:23;1.80;;;0.60;;
1811;SDS011;904;47.814;11.134;2023-01-16T11:46:19;4.07;;;0.67;;
1811;SDS011;904;47.814;11.134;2023-01-16T11:48:55;2.13;;;0.90;;
1811;SDS011;904;47.814;11.134;2023-01-16T11:51:27;1.90;;;0.83;;
1811;SDS011;904;47.814;11.134;2023-01-16T11:53:55;1.70;;;0.70;;
1811;SDS011;904;47.814;11.134;2023-01-16T11:56:38;1.73;;;0.70;;
1811;SDS011;904;47.814;11.134;2023-01-16T11:59:16;1.80;;;0.90;;
1811;SDS011;904;47.814;11.134;2023-01-16T12:01:55;2.63;;;0.97;;
1811;SDS011;904;47.814;11.134;2023-01-16T12:04:46;1.60;;;0.70;;
1811;SDS011;904;47.814;11.134;2023-01-16T12:07:31;2.07;;;1.00;;
1811;SDS011;904;47.814;11.134;2023-01-16T12:10:10;2.17;;;0.80;;
1811;SDS011;904;47.814;11.134;2023-01-16T12:12:50;4.63;;;1.50;;
1811;SDS011;904;47.814;11.134;2023-01-16T12:15:42;1.87;;;0.70;;
1811;SDS011;904;47.814;11.134;2023-01-16T12:18:21;2.63;;;1.10;;
1811;SDS011;904;47.814;11.134;2023-01-16T12:20:56;2.10;;;1.07;;
1811;SDS011;904;47.814;11.134;2023-01-16T12:23:32;2.27;;;1.20;;
1811;SDS011;904;47.814;11.134;2023-01-16T12:26:16;2.40;;;1.30;;
1811;SDS011;904;47.814;11.134;2023-01-16T12:28:53;3.37;;;1.30;;
1811;SDS011;904;47.814;11.134;2023-01-16T12:31:40;2.20;;;1.00;;
1811;SDS011;904;47.814;11.134;2023-01-16T12:34:26;3.60;;;1.30;;
1811;SDS011;904;47.814;11.134;2023-01-16T12:37:09;1.80;;;1.00;;
1811;SDS011;904;47.814;11.134;2023-01-16T12:39:47;2.07;;;1.00;;
1811;SDS011;904;47.814;11.134;2023-01-16T12:42:23;4.63;;;1.30;;
1811;SDS011;904;47.814;11.134;2023-01-16T12:45:28;2.20;;;1.20;;
1811;SDS011;904;47.814;11.134;2023-01-16T12:48:12;2.63;;;1.35;;
1811;SDS011;904;47.814;11.134;2023-01-16T12:51:01;2.60;;;1.60;;
1811;SDS011;904;47.814;11.134;2023-01-16T12:56:56;3.63;;;1.60;;
1811;SDS011;904;47.814;11.134;2023-01-16T12:59:35;4.35;;;1.40;;
1811;SDS011;904;47.814;11.134;2023-01-16T13:02:12;8.63;;;1.40;;
1811;SDS011;904;47.814;11.134;2023-01-16T13:04:46;2.67;;;1.65;;
1811;SDS011;904;47.814;11.134;2023-01-16T13:07:17;2.85;;;1.40;;
1811;SDS011;904;47.814;11.134;2023-01-16T13:09:50;4.18;;;1.35;;
1811;SDS011;904;47.814;11.134;2023-01-16T13:12:42;5.65;;;1.80;;
1811;SDS011;904;47.814;11.134;2023-01-16T13:15:30;4.07;;;1.65;;
1811;SDS011;904;47.814;11.134;2023-01-16T13:18:02;2.35;;;1.48;;
1811;SDS011;904;47.814;11.134;2023-01-16T13:20:33;3.30;;;1.70;;
1811;SDS011;904;47.814;11.134;2023-01-16T13:23:01;3.05;;;1.85;;
1811;SDS011;904;47.814;11.134;2023-01-16T13:25:31;4.95;;;2.17;;
1811;SDS011;904;47.814;11.134;2023-01-16T13:28:06;2.75;;;1.50;;
1811;SDS011;904;47.814;11.134;2023-01-16T13:30:43;3.17;;;1.98;;
1811;SDS011;904;47.814;11.134;2023-01-16T13:33:15;3.55;;;1.52;;
1811;SDS011;904;47.814;11.134;2023-01-16T13:35:49;6.57;;;1.98;;
1811;SDS011;904;47.814;11.134;2023-01-16T13:41:16;2.35;;;1.30;;
1811;SDS011;904;47.814;11.134;2023-01-16T13:43:50;3.05;;;1.33;;
1811;SDS011;904;47.814;11.134;2023-01-16T13:46:39;3.65;;;1.88;;
1811;SDS011;904;47.814;11.134;2023-01-16T13:49:13;4.35;;;2.00;;
1811;SDS011;904;47.814;11.134;2023-01-16T13:51:47;2.97;;;1.58;;
1811;SDS011;904;47.814;11.134;2023-01-16T13:54:18;2.63;;;1.67;;
1811;SDS011;904;47.814;11.134;2023-01-16T13:56:55;3.13;;;1.60;;
1811;SDS011;904;47.814;11.134;2023-01-16T13:59:28;4.00;;;1.25;;
1811;SDS011;904;47.814;11.134;2023-01-16T14:02:04;2.88;;;1.33;;
1811;SDS011;904;47.814;11.134;2023-01-16T14:05:20;3.60;;;1.20;;
1811;SDS011;904;47.814;11.134;2023-01-16T14:07:51;7.88;;;1.40;;
1811;SDS011;904;47.814;11.134;2023-01-16T14:11:02;2.15;;;0.95;;
1811;SDS011;904;47.814;11.134;2023-01-16T14:13:32;6.93;;;1.92;;
1811;SDS011;904;47.814;11.134;2023-01-16T14:16:23;3.95;;;2.15;;
1811;SDS011;904;47.814;11.134;2023-01-16T14:18:59;2.95;;;1.88;;
1811;SDS011;904;47.814;11.134;2023-01-16T14:21:38;3.75;;;2.47;;
1811;SDS011;904;47.814;11.134;2023-01-16T14:24:09;3.15;;;1.80;;
1811;SDS011;904;47.814;11.134;2023-01-16T14:26:42;4.47;;;1.75;;
1811;SDS011;904;47.814;11.134;2023-01-16T14:29:17;4.50;;;2.30;;
1811;SDS011;904;47.814;11.134;2023-01-16T14:31:52;4.30;;;2.60;;
1811;SDS011;904;47.814;11.134;2023-01-16T14:34:22;5.03;;;3.25;;
1811;SDS011;904;47.814;11.134;2023-01-16T14:36:54;4.97;;;2.33;;
1811;SDS011;904;47.814;11.134;2023-01-16T14:39:31;13.38;;;5.88;;
1811;SDS011;904;47.814;11.134;2023-01-16T14:42:02;6.35;;;3.65;;
1811;SDS011;904;47.814;11.134;2023-01-16T14:48:15;4.95;;;3.10;;
1811;SDS011;904;47.814;11.134;2023-01-16T14:51:17;9.48;;;2.92;;
1811;SDS011;904;47.814;11.134;2023-01-16T14:54:14;8.65;;;3.88;;
1811;SDS011;904;47.814;11.134;2023-01-16T14:57:03;5.72;;;3.17;;
1811;SDS011;904;47.814;11.134;2023-01-16T14:59:37;5.25;;;2.63;;
1811;SDS011;904;47.814;11.134;2023-01-16T15:02:07;5.95;;;3.10;;
1811;SDS011;904;47.814;11.134;2023-01-16T15:04:56;7.20;;;3.67;;
1811;SDS011;904;47.814;11.134;2023-01-16T15:07:29;5.90;;;3.47;;
1811;SDS011;904;47.814;11.134;2023-01-16T15:10:04;7.60;;;4.72;;
1811;SDS011;904;47.814;11.134;2023-01-16T15:12:36;6.78;;;4.10;;
1811;SDS011;904;47.814;11.134;2023-01-16T15:15:05;4.53;;;3.80;;
1811;SDS011;904;47.814;11.134;2023-01-16T15:17:45;6.72;;;4.47;;
1811;SDS011;904;47.814;11.134;2023-01-16T15:20:41;7.60;;;4.30;;
1811;SDS011;904;47.814;11.134;2023-01-16T15:23:27;6.63;;;3.97;;
1811;SDS011;904;47.814;11.134;2023-01-16T15:29:00;7.70;;;3.78;;
1811;SDS011;904;47.814;11.134;2023-01-16T15:31:35;7.30;;;4.00;;
1811;SDS011;904;47.814;11.134;2023-01-16T15:34:17;9.40;;;3.65;;
1811;SDS011;904;47.814;11.134;2023-01-16T15:36:47;4.25;;;3.03;;
1811;SDS011;904;47.814;11.134;2023-01-16T15:39:17;4.45;;;2.75;;
1811;SDS011;904;47.814;11.134;2023-01-16T15:41:50;6.25;;;3.58;;
1811;SDS011;904;47.814;11.134;2023-01-16T15:44:38;5.63;;;3.10;;
1811;SDS011;904;47.814;11.134;2023-01-16T15:50:42;3.15;;;2.20;;
1811;SDS011;904;47.814;11.134;2023-01-16T15:53:18;3.72;;;1.70;;
1811;SDS011;904;47.814;11.134;2023-01-16T15:55:47;4.68;;;2.22;;
1811;SDS011;904;47.814;11.134;2023-01-16T15:58:18;3.17;;;2.20;;
1811;SDS011;904;47.814;11.134;2023-01-16T16:00:52;6.93;;;2.95;;
1811;SDS011;904;47.814;11.134;2023-01-16T16:03:21;4.35;;;2.17;;
1811;SDS011;904;47.814;11.134;2023-01-16T16:05:51;4.30;;;2.75;;
1811;SDS011;904;47.814;11.134;2023-01-16T16:08:22;8.20;;;3.90;;
1811;SDS011;904;47.814;11.134;2023-01-16T16:10:51;11.50;;;3.85;;
1811;SDS011;904;47.814;11.134;2023-01-16T16:13:41;5.68;;;2.78;;
1811;SDS011;904;47.814;11.134;2023-01-16T16:16:16;8.65;;;3.13;;
1811;SDS011;904;47.814;11.134;2023-01-16T16:19:05;5.60;;;3.70;;